Time;durP1;ratioP1;P1;durP2;ratioP2;P2;SDS_P1;SDS_P2;PMS_P1;PMS_P2;Temp;Humidity;BMP_temperature;BMP_pressure;BME280_temperature;BME280_humidity;BME280_pressure;Samples;Min_cycle;Max_cycle;Signal;HPM_P1;HPM_P2
2023/12/16 00:01:47;;;;;;;11.30;2.15;;;7.80;99.90;;;;;;5067636;28;20044;-64
2023/12/16 00:04:13;;;;;;;14.82;2.75;;;7.80;99.90;;;;;;5045986;28;20091;-65
2023/12/16 00:06:38;;;;;;;15.43;3.13;;;7.80;99.90;;;;;;5067578;28;20037;-64
2023/12/16 00:09:04;;;;;;;9.10;2.10;;;7.90;99.90;;;;;;5049910;28;20039;-65
2023/12/16 00:11:30;;;;;;;13.02;2.85;;;7.80;99.90;;;;;;5063767;28;20519;-64
2023/12/16 00:13:56;;;;;;;8.63;2.38;;;7.90;99.90;;;;;;5068483;28;20058;-65
2023/12/16 00:16:24;;;;;;;9.33;3.03;;;7.90;99.90;;;;;;5067556;28;20094;-64
2023/12/16 00:18:49;;;;;;;11.30;2.85;;;7.90;99.90;;;;;;5066646;28;20040;-64
2023/12/16 00:21:16;;;;;;;14.17;3.03;;;7.90;99.90;;;;;;5068608;28;20072;-64
2023/12/16 00:23:41;;;;;;;10.27;3.08;;;7.90;99.90;;;;;;5068768;28;20307;-63
2023/12/16 00:26:07;;;;;;;20.75;3.65;;;7.90;99.90;;;;;;5068848;28;20037;-64
2023/12/16 00:28:33;;;;;;;14.20;2.60;;;7.90;99.90;;;;;;5067781;28;20051;-65
2023/12/16 00:30:58;;;;;;;17.10;3.13;;;7.90;99.90;;;;;;5057459;28;20044;-63
2023/12/16 00:33:24;;;;;;;12.03;2.57;;;7.90;99.90;;;;;;5062557;28;20823;-65
2023/12/16 00:35:50;;;;;;;9.37;2.07;;;7.90;99.90;;;;;;5063777;28;20417;-64
2023/12/16 00:38:15;;;;;;;12.00;3.53;;;7.90;99.90;;;;;;5067515;28;20353;-64
2023/12/16 00:40:41;;;;;;;13.57;4.17;;;7.90;99.90;;;;;;5067800;28;20043;-63
2023/12/16 00:43:06;;;;;;;17.87;3.07;;;7.90;99.90;;;;;;5067747;28;20102;-64
2023/12/16 00:45:32;;;;;;;16.63;2.83;;;7.80;99.90;;;;;;5068028;28;20045;-64
2023/12/16 00:47:57;;;;;;;16.87;3.43;;;7.90;99.90;;;;;;5068369;28;20032;-64
2023/12/16 00:50:24;;;;;;;17.83;2.70;;;7.80;99.90;;;;;;5049962;28;20105;-64
2023/12/16 00:52:49;;;;;;;15.70;3.92;;;7.80;99.90;;;;;;5068412;28;20033;-64
2023/12/16 00:55:15;;;;;;;13.38;3.53;;;7.80;99.90;;;;;;5050360;28;20446;-65
2023/12/16 00:57:41;;;;;;;17.13;3.73;;;7.80;99.90;;;;;;5068147;28;20624;-64
2023/12/16 01:00:07;;;;;;;19.70;4.37;;;7.80;99.90;;;;;;5067076;28;20103;-64
2023/12/16 01:02:33;;;;;;;;;;;7.80;99.90;;;;;;5068547;28;20093;-64
2023/12/16 01:04:58;;;;;;;14.23;3.03;;;7.80;99.90;;;;;;5068451;28;19920;-64
2023/12/16 01:07:24;;;;;;;8.20;2.60;;;7.80;99.90;;;;;;5050479;28;20770;-64
2023/12/16 01:09:53;;;;;;;11.27;2.87;;;7.80;99.90;;;;;;5069231;28;20039;-64
2023/12/16 01:12:19;;;;;;;10.07;2.67;;;7.80;99.90;;;;;;5068141;28;20043;-64
2023/12/16 01:14:44;;;;;;;13.63;2.88;;;7.80;99.90;;;;;;5051178;28;20072;-64
2023/12/16 01:17:10;;;;;;;11.90;2.33;;;7.80;99.90;;;;;;5068907;28;20071;-64
2023/12/16 01:19:35;;;;;;;10.53;2.13;;;7.80;99.90;;;;;;5068705;28;20402;-64
2023/12/16 01:22:01;;;;;;;8.03;2.13;;;7.90;99.90;;;;;;5051250;28;20078;-64
2023/12/16 01:24:27;;;;;;;14.60;3.10;;;7.90;99.90;;;;;;5074201;28;20392;-64
2023/12/16 01:26:53;;;;;;;10.75;2.00;;;7.90;99.90;;;;;;5072547;28;20029;-64
2023/12/16 01:29:18;;;;;;;10.00;2.30;;;7.90;99.90;;;;;;5068228;28;20078;-64
2023/12/16 01:31:44;;;;;;;9.93;2.07;;;7.90;99.90;;;;;;5063719;28;20275;-63
2023/12/16 01:34:09;;;;;;;7.67;2.40;;;7.90;99.90;;;;;;5069219;28;20091;-63
2023/12/16 01:36:35;;;;;;;11.73;1.83;;;7.90;99.90;;;;;;5068284;28;20051;-64
2023/12/16 01:39:01;;;;;;;8.60;2.23;;;7.90;99.90;;;;;;5068562;28;20043;-64
2023/12/16 01:41:26;;;;;;;21.27;2.93;;;7.90;99.90;;;;;;5068755;28;20279;-64
2023/12/16 01:43:52;;;;;;;19.03;2.97;;;7.90;99.90;;;;;;5050495;28;20032;-64
2023/12/16 01:46:19;;;;;;;9.53;2.30;;;7.80;99.90;;;;;;5068242;28;20646;-64
2023/12/16 01:48:45;;;;;;;15.27;2.38;;;7.90;99.90;;;;;;5050307;28;20033;-64
2023/12/16 01:51:11;;;;;;;14.88;2.30;;;7.80;99.90;;;;;;5068260;28;20036;-64
2023/12/16 01:53:38;;;;;;;14.05;2.20;;;7.80;99.90;;;;;;5066066;28;21280;-64
2023/12/16 01:56:05;;;;;;;12.55;2.03;;;7.80;99.90;;;;;;5063327;28;20044;-64
2023/12/16 01:58:31;;;;;;;8.50;2.08;;;7.80;99.90;;;;;;5067940;28;20048;-63
2023/12/16 02:00:57;;;;;;;14.80;1.90;;;7.70;99.90;;;;;;5050812;28;20418;-63
2023/12/16 02:03:25;;;;;;;13.20;2.75;;;7.70;99.90;;;;;;5067760;28;20328;-63
2023/12/16 02:05:50;;;;;;;16.95;3.13;;;7.70;99.90;;;;;;5050262;28;20044;-64
2023/12/16 02:08:16;;;;;;;8.87;1.30;;;7.60;99.90;;;;;;5068153;28;20043;-63
2023/12/16 02:10:42;;;;;;;10.43;2.47;;;7.60;99.90;;;;;;5067679;28;20047;-64
2023/12/16 02:13:07;;;;;;;11.82;2.40;;;7.60;99.90;;;;;;5068212;28;20043;-64
2023/12/16 02:15:33;;;;;;;17.27;2.67;;;7.50;99.90;;;;;;5050041;28;20037;-64
2023/12/16 02:17:58;;;;;;;14.30;2.67;;;7.50;99.90;;;;;;5067991;28;20471;-64
2023/12/16 02:20:24;;;;;;;10.83;2.07;;;7.40;99.90;;;;;;5067994;28;20475;-63
2023/12/16 02:22:50;;;;;;;13.32;1.95;;;7.40;99.90;;;;;;5068044;28;20036;-64
2023/12/16 02:25:17;;;;;;;12.65;3.08;;;7.30;99.90;;;;;;5049477;28;20041;-64
2023/12/16 02:27:44;;;;;;;17.45;3.17;;;7.30;99.90;;;;;;5068455;28;20037;-64
2023/12/16 02:30:10;;;;;;;10.55;2.03;;;7.20;99.90;;;;;;5069795;28;20025;-64
2023/12/16 02:32:36;;;;;;;9.02;2.45;;;7.20;99.90;;;;;;5065551;28;20054;-63
2023/12/16 02:35:01;;;;;;;13.57;2.33;;;7.10;99.90;;;;;;5072006;28;20040;-63
2023/12/16 02:37:28;;;;;;;12.13;3.17;;;7.10;99.90;;;;;;5070871;28;20314;-63
2023/12/16 02:39:54;;;;;;;17.38;2.65;;;7.00;99.90;;;;;;5070513;28;20116;-63
2023/12/16 02:42:20;;;;;;;16.53;3.37;;;7.00;99.90;;;;;;5052546;28;20203;-63
2023/12/16 02:44:45;;;;;;;21.33;3.30;;;6.90;99.90;;;;;;5071803;28;20064;-62
2023/12/16 02:47:11;;;;;;;16.67;3.47;;;6.80;99.90;;;;;;5071572;28;20060;-63
2023/12/16 02:49:36;;;;;;;13.20;3.37;;;6.80;99.90;;;;;;5071137;28;20440;-63
2023/12/16 02:52:02;;;;;;;15.50;3.67;;;6.80;99.90;;;;;;5071176;28;20042;-65
2023/12/16 02:54:28;;;;;;;17.35;3.70;;;6.70;99.90;;;;;;5070226;28;20051;-63
2023/12/16 02:56:53;;;;;;;13.20;4.57;;;6.70;99.90;;;;;;5053236;28;20661;-63
2023/12/16 02:59:19;;;;;;;13.60;3.00;;;6.70;99.90;;;;;;5070787;28;20040;-63
2023/12/16 03:01:45;;;;;;;13.00;3.20;;;6.60;99.90;;;;;;5071054;28;20032;-64
2023/12/16 03:04:10;;;;;;;17.33;2.70;;;6.60;99.90;;;;;;5070387;28;20486;-64
2023/12/16 03:06:42;;;;;;;20.63;4.37;;;6.60;99.90;;;;;;5070949;28;20035;-64
2023/12/16 03:09:09;;;;;;;17.60;3.58;;;6.60;99.90;;;;;;5070346;28;20052;-63
2023/12/16 03:11:34;;;;;;;14.75;3.75;;;6.60;99.90;;;;;;5070349;28;20045;-63
2023/12/16 03:14:00;;;;;;;20.40;3.40;;;6.50;99.90;;;;;;5070492;28;20317;-63
2023/12/16 03:16:25;;;;;;;20.23;3.73;;;6.50;99.90;;;;;;5070741;28;20036;-63
2023/12/16 03:18:51;;;;;;;16.77;3.63;;;6.50;99.90;;;;;;5070761;28;20028;-64
2023/12/16 03:21:16;;;;;;;17.40;4.37;;;6.50;99.90;;;;;;5070237;28;20044;-63
2023/12/16 03:23:42;;;;;;;13.37;3.70;;;6.50;99.90;;;;;;5069913;28;20119;-64
2023/12/16 03:26:07;;;;;;;16.50;3.27;;;6.50;99.90;;;;;;5070367;28;20525;-63
2023/12/16 03:28:33;;;;;;;15.13;4.07;;;6.50;99.90;;;;;;5070681;28;20455;-64
2023/12/16 03:30:59;;;;;;;13.93;3.27;;;6.50;99.90;;;;;;5070499;28;20029;-64
2023/12/16 03:33:24;;;;;;;15.67;3.70;;;6.50;99.90;;;;;;5064609;28;20044;-63
2023/12/16 03:35:50;;;;;;;14.70;2.97;;;6.50;99.90;;;;;;5070536;28;20048;-63
2023/12/16 03:38:15;;;;;;;16.30;3.00;;;6.50;99.90;;;;;;5069796;28;20510;-64
2023/12/16 03:40:41;;;;;;;13.43;3.40;;;6.40;99.90;;;;;;5070023;28;20081;-63
2023/12/16 03:43:07;;;;;;;16.57;3.67;;;6.50;99.90;;;;;;5070106;28;20024;-63
2023/12/16 03:45:32;;;;;;;13.57;2.70;;;6.50;99.90;;;;;;5051516;28;20466;-63
2023/12/16 03:47:58;;;;;;;12.20;2.83;;;6.50;99.90;;;;;;5070312;28;20043;-64
2023/12/16 03:50:23;;;;;;;18.00;4.53;;;6.50;99.90;;;;;;5069286;28;20050;-63
2023/12/16 03:52:49;;;;;;;10.63;2.50;;;6.50;99.90;;;;;;5069834;28;20048;-64
2023/12/16 03:55:14;;;;;;;13.30;3.50;;;6.50;99.90;;;;;;5069927;28;20047;-63
2023/12/16 03:57:40;;;;;;;12.27;3.33;;;6.40;99.90;;;;;;5051944;28;20556;-64
2023/12/16 04:00:08;;;;;;;21.17;3.03;;;6.40;99.90;;;;;;5069176;28;20036;-64
2023/12/16 04:02:33;;;;;;;18.15;3.40;;;6.40;99.90;;;;;;5068888;28;20499;-64
2023/12/16 04:04:59;;;;;;;13.30;4.03;;;6.40;99.90;;;;;;5069709;28;20051;-63
2023/12/16 04:07:25;;;;;;;18.27;4.30;;;6.40;99.90;;;;;;5068774;28;20465;-63
2023/12/16 04:09:50;;;;;;;18.97;4.10;;;6.40;99.90;;;;;;5070392;28;20039;-63
2023/12/16 04:12:16;;;;;;;12.30;2.53;;;6.40;99.90;;;;;;5075255;28;20100;-64
2023/12/16 04:14:41;;;;;;;18.10;4.17;;;6.40;99.90;;;;;;5072669;28;20454;-64
2023/12/16 04:17:07;;;;;;;15.57;2.90;;;6.40;99.90;;;;;;5069187;28;20044;-63
2023/12/16 04:19:33;;;;;;;14.20;2.45;;;6.40;99.90;;;;;;5069432;28;20542;-63
2023/12/16 04:21:58;;;;;;;14.73;3.53;;;6.40;99.90;;;;;;5069113;28;20040;-64
2023/12/16 04:24:24;;;;;;;20.47;2.70;;;6.40;99.90;;;;;;5070183;28;20041;-64
2023/12/16 04:26:50;;;;;;;16.03;3.03;;;6.40;99.90;;;;;;5054103;28;20503;-63
2023/12/16 04:29:15;;;;;;;14.87;3.60;;;6.40;99.90;;;;;;5068713;28;20025;-64
2023/12/16 04:31:41;;;;;;;23.63;4.60;;;6.40;99.90;;;;;;5046722;28;20033;-64
2023/12/16 04:34:07;;;;;;;21.75;3.03;;;6.40;99.90;;;;;;5065069;28;20284;-63
2023/12/16 04:36:33;;;;;;;15.25;3.00;;;6.40;99.90;;;;;;5068458;28;20125;-64
2023/12/16 04:38:59;;;;;;;18.27;3.10;;;6.40;99.90;;;;;;5069276;28;20039;-64
2023/12/16 04:41:25;;;;;;;10.48;3.10;;;6.40;99.90;;;;;;5069250;28;20438;-64
2023/12/16 04:43:53;;;;;;;10.97;3.63;;;6.30;99.90;;;;;;5051415;28;20040;-64
2023/12/16 04:46:22;;;;;;;15.45;2.88;;;6.30;99.90;;;;;;5068757;28;20090;-63
2023/12/16 04:48:48;;;;;;;19.20;3.70;;;6.30;99.90;;;;;;5068657;28;20115;-64
2023/12/16 04:51:14;;;;;;;17.92;3.50;;;6.30;99.90;;;;;;5065812;28;20032;-64
2023/12/16 04:53:40;;;;;;;15.00;3.33;;;6.30;99.90;;;;;;5050378;28;20041;-63
2023/12/16 04:56:06;;;;;;;16.30;4.45;;;6.30;99.90;;;;;;5069489;28;20036;-63
2023/12/16 04:58:32;;;;;;;24.27;4.88;;;6.30;99.90;;;;;;5068900;28;20089;-64
2023/12/16 05:00:58;;;;;;;18.83;3.90;;;6.30;99.90;;;;;;5050750;28;20727;-62
2023/12/16 05:03:24;;;;;;;17.37;5.10;;;6.30;99.90;;;;;;5068252;28;20065;-63
2023/12/16 05:05:50;;;;;;;18.17;4.55;;;6.30;99.90;;;;;;5068384;28;20036;-64
2023/12/16 05:08:15;;;;;;;18.75;5.00;;;6.30;99.90;;;;;;5067628;28;20028;-63
2023/12/16 05:10:42;;;;;;;18.10;5.45;;;6.20;99.90;;;;;;5049475;28;20125;-63
2023/12/16 05:13:10;;;;;;;19.60;3.67;;;6.20;99.90;;;;;;5050758;28;20060;-63
2023/12/16 05:15:39;;;;;;;12.93;3.55;;;6.20;99.90;;;;;;5068245;28;20044;-63
2023/12/16 05:18:08;;;;;;;23.80;4.82;;;6.20;99.90;;;;;;5068572;28;20036;-63
2023/12/16 05:20:34;;;;;;;16.30;4.97;;;6.20;99.90;;;;;;5068174;28;20560;-63
2023/12/16 05:23:00;;;;;;;23.20;5.20;;;6.20;99.90;;;;;;5067927;28;20519;-64
2023/12/16 05:25:28;;;;;;;18.58;5.03;;;6.20;99.90;;;;;;5068158;28;20106;-63
2023/12/16 05:27:53;;;;;;;14.63;5.28;;;6.20;99.90;;;;;;5051022;28;20040;-62
2023/12/16 05:30:19;;;;;;;22.07;5.97;;;6.20;99.90;;;;;;5068875;28;20037;-64
2023/12/16 05:32:45;;;;;;;22.90;4.37;;;6.20;99.90;;;;;;5050296;28;20808;-64
2023/12/16 05:35:10;;;;;;;13.18;4.40;;;6.20;99.90;;;;;;5068524;28;20043;-64
2023/12/16 05:37:36;;;;;;;21.30;5.17;;;6.20;99.90;;;;;;5068034;28;20052;-62
2023/12/16 05:40:03;;;;;;;13.57;5.15;;;6.20;99.90;;;;;;5068426;28;20036;-63
2023/12/16 05:42:29;;;;;;;21.15;5.03;;;6.10;99.90;;;;;;5062199;28;20317;-63
2023/12/16 05:44:55;;;;;;;27.98;5.18;;;6.10;99.90;;;;;;5069733;28;20514;-63
2023/12/16 05:47:20;;;;;;;22.35;5.75;;;6.10;99.90;;;;;;5075393;28;20129;-62
2023/12/16 05:49:46;;;;;;;26.50;5.43;;;6.10;99.90;;;;;;5068367;28;20064;-63
2023/12/16 05:52:12;;;;;;;24.23;4.80;;;6.10;99.90;;;;;;5050658;28;20036;-64
2023/12/16 05:54:38;;;;;;;19.27;4.88;;;6.10;99.90;;;;;;5073422;28;20033;-64
2023/12/16 05:57:04;;;;;;;15.70;3.93;;;6.10;99.90;;;;;;5072203;28;20033;-64
2023/12/16 05:59:29;;;;;;;16.98;5.22;;;6.10;99.90;;;;;;5068945;28;20041;-64
2023/12/16 06:01:55;;;;;;;22.40;5.77;;;6.10;99.90;;;;;;5067812;28;20085;-64
2023/12/16 06:04:21;;;;;;;19.98;5.57;;;6.10;99.90;;;;;;5068482;28;20560;-63
2023/12/16 06:06:47;;;;;;;15.77;4.90;;;6.10;99.90;;;;;;5069655;28;20033;-63
2023/12/16 06:09:12;;;;;;;24.47;4.90;;;6.10;99.90;;;;;;5071832;28;20167;-64
2023/12/16 06:11:38;;;;;;;19.27;4.85;;;6.10;99.90;;;;;;5071511;28;20032;-64
2023/12/16 06:14:04;;;;;;;15.00;4.67;;;6.10;99.90;;;;;;5070934;28;20036;-64
2023/12/16 06:16:29;;;;;;;19.57;4.80;;;6.10;99.90;;;;;;5072411;28;20116;-62
2023/12/16 06:18:55;;;;;;;20.63;5.37;;;6.10;99.90;;;;;;5072356;28;20029;-64
2023/12/16 06:21:20;;;;;;;15.37;5.17;;;6.10;99.90;;;;;;5071575;28;20048;-64
2023/12/16 06:23:46;;;;;;;21.57;5.83;;;6.00;99.90;;;;;;5071137;28;20114;-64
2023/12/16 06:26:11;;;;;;;21.73;5.90;;;6.00;99.90;;;;;;5054005;28;20426;-63
2023/12/16 06:28:37;;;;;;;16.47;6.17;;;6.00;99.90;;;;;;5054017;28;20498;-64
2023/12/16 06:31:03;;;;;;;14.30;5.23;;;6.00;99.90;;;;;;5071475;28;20075;-64
2023/12/16 06:33:28;;;;;;;21.15;6.00;;;6.00;99.90;;;;;;5071149;28;20044;-65
2023/12/16 06:35:54;;;;;;;24.33;5.67;;;6.00;99.90;;;;;;5071879;28;20502;-64
2023/12/16 06:38:20;;;;;;;25.10;6.43;;;6.00;99.90;;;;;;5052252;28;20098;-63
2023/12/16 06:40:46;;;;;;;22.00;6.57;;;6.00;99.90;;;;;;5071727;28;20529;-64
2023/12/16 06:43:11;;;;;;;19.00;5.23;;;5.90;99.90;;;;;;5070561;28;20123;-64
2023/12/16 06:45:40;;;;;;;25.13;6.47;;;5.90;99.90;;;;;;5065173;28;20488;-64
2023/12/16 06:48:05;;;;;;;26.73;6.20;;;5.90;99.90;;;;;;5071517;28;20043;-64
2023/12/16 06:50:31;;;;;;;20.43;7.17;;;5.90;99.90;;;;;;5052862;28;20043;-64
2023/12/16 06:52:57;;;;;;;22.20;5.95;;;5.90;99.90;;;;;;5070544;28;20066;-63
2023/12/16 06:55:22;;;;;;;17.00;6.13;;;5.90;99.90;;;;;;5071637;28;20044;-64
2023/12/16 06:57:48;;;;;;;25.90;6.33;;;5.90;99.90;;;;;;5071140;28;20415;-63
2023/12/16 07:00:14;;;;;;;19.10;7.53;;;5.90;99.90;;;;;;5071409;28;20041;-65
2023/12/16 07:02:43;;;;;;;26.20;7.13;;;5.90;99.90;;;;;;5070505;28;20033;-64
2023/12/16 07:05:10;;;;;;;23.77;8.00;;;5.90;99.90;;;;;;5053825;28;20048;-64
2023/12/16 07:07:35;;;;;;;;;;;5.90;99.90;;;;;;5066881;28;20067;-64
2023/12/16 07:10:02;;;;;;;28.40;7.07;;;5.90;99.90;;;;;;5070992;28;20280;-65
2023/12/16 07:12:27;;;;;;;26.33;7.85;;;5.90;99.90;;;;;;5070115;28;20107;-64
2023/12/16 07:14:53;;;;;;;13.97;7.27;;;5.90;99.90;;;;;;5071036;28;20039;-64
2023/12/16 07:17:19;;;;;;;18.47;7.50;;;5.80;99.90;;;;;;5064667;28;20451;-64
2023/12/16 07:19:44;;;;;;;28.17;7.38;;;5.80;99.90;;;;;;5066775;28;20483;-64
2023/12/16 07:22:10;;;;;;;30.53;8.13;;;5.80;99.90;;;;;;5062629;28;20036;-64
2023/12/16 07:24:37;;;;;;;18.37;7.53;;;5.80;99.90;;;;;;5050967;28;20045;-64
2023/12/16 07:27:03;;;;;;;22.88;7.93;;;5.80;99.90;;;;;;5062848;28;20111;-65
2023/12/16 07:29:34;;;;;;;24.42;8.05;;;5.90;99.90;;;;;;5069048;28;20120;-64
2023/12/16 07:32:00;;;;;;;25.08;8.27;;;5.90;99.90;;;;;;5065928;28;20036;-63
2023/12/16 07:34:25;;;;;;;24.17;8.75;;;5.90;99.90;;;;;;5070056;28;20441;-64
2023/12/16 07:36:51;;;;;;;26.60;9.10;;;5.90;99.90;;;;;;5070996;28;20055;-64
2023/12/16 07:39:17;;;;;;;22.50;8.63;;;5.90;99.90;;;;;;5070857;28;20483;-64
2023/12/16 07:41:42;;;;;;;29.57;9.77;;;5.90;99.90;;;;;;5070687;28;20157;-63
2023/12/16 07:44:08;;;;;;;28.50;8.40;;;5.90;99.90;;;;;;5070903;28;20028;-63
2023/12/16 07:46:33;;;;;;;22.53;9.30;;;5.90;99.90;;;;;;5070494;28;20135;-63
2023/12/16 07:48:59;;;;;;;26.80;9.03;;;6.00;99.90;;;;;;5068144;28;20037;-63
2023/12/16 07:51:25;;;;;;;31.37;9.50;;;6.00;99.90;;;;;;5052176;28;20113;-63
2023/12/16 07:53:51;;;;;;;;;;;6.00;99.90;;;;;;5071291;28;20390;-63
2023/12/16 07:56:26;;;;;;;22.25;8.05;;;6.00;99.90;;;;;;5066692;28;20058;-63
2023/12/16 07:58:52;;;;;;;25.17;8.68;;;6.10;99.90;;;;;;5066700;28;20040;-64
2023/12/16 08:01:19;;;;;;;21.48;8.73;;;6.10;99.90;;;;;;5063749;28;20044;-64
2023/12/16 08:03:45;;;;;;;35.25;9.38;;;6.10;99.90;;;;;;5064144;28;20445;-63
2023/12/16 08:06:13;;;;;;;25.90;9.88;;;6.10;99.90;;;;;;5066139;28;20119;-64
2023/12/16 08:08:40;;;;;;;24.10;9.48;;;6.20;99.90;;;;;;5063451;28;20033;-62
2023/12/16 08:11:07;;;;;;;25.92;8.63;;;6.10;99.90;;;;;;5062654;28;20090;-63
2023/12/16 08:13:32;;;;;;;30.50;8.27;;;6.20;99.90;;;;;;5062297;28;20047;-62
2023/12/16 08:15:59;;;;;;;37.20;10.48;;;6.20;99.90;;;;;;5062708;28;20044;-63
2023/12/16 08:18:25;;;;;;;35.35;10.18;;;6.10;99.90;;;;;;5063025;28;20044;-63
2023/12/16 08:20:50;;;;;;;27.83;9.05;;;6.20;99.90;;;;;;5059689;28;20051;-63
2023/12/16 08:23:17;;;;;;;27.43;8.20;;;6.20;99.90;;;;;;5061346;28;20648;-67
2023/12/16 08:25:43;;;;;;;23.27;8.20;;;6.20;99.90;;;;;;5026146;28;20049;-64
2023/12/16 08:28:08;;;;;;;38.07;9.20;;;6.20;99.90;;;;;;5064564;28;20037;-64
2023/12/16 08:30:34;;;;;;;26.73;8.83;;;6.20;99.90;;;;;;5071228;28;20048;-64
2023/12/16 08:32:59;;;;;;;22.00;9.73;;;6.20;99.90;;;;;;5054467;28;20044;-64
2023/12/16 08:35:27;;;;;;;29.23;8.87;;;6.20;99.90;;;;;;5063035;28;20515;-66
2023/12/16 08:37:55;;;;;;;30.58;10.00;;;6.20;99.90;;;;;;5058230;28;20036;-64
2023/12/16 08:40:20;;;;;;;24.70;9.65;;;6.20;99.90;;;;;;5060598;28;20437;-64
2023/12/16 08:42:46;;;;;;;40.13;10.40;;;6.20;99.90;;;;;;5063992;28;20032;-66
2023/12/16 08:45:13;;;;;;;32.03;10.25;;;6.30;99.90;;;;;;5062322;28;20037;-63
2023/12/16 08:47:39;;;;;;;32.38;9.95;;;6.30;99.90;;;;;;5058061;28;20431;-64
2023/12/16 08:50:06;;;;;;;21.88;9.25;;;6.30;99.90;;;;;;5058536;28;20082;-64
2023/12/16 08:52:32;;;;;;;23.25;10.10;;;6.30;99.90;;;;;;5063313;28;20075;-63
2023/12/16 08:54:58;;;;;;;;;;;6.40;99.90;;;;;;5062254;28;20107;-65
2023/12/16 08:57:24;;;;;;;22.15;8.63;;;6.40;99.90;;;;;;5068338;28;20046;-64
2023/12/16 08:59:50;;;;;;;24.88;8.88;;;6.40;99.90;;;;;;5067393;28;20081;-63
2023/12/16 09:02:15;;;;;;;36.97;9.63;;;6.40;99.90;;;;;;5061270;28;20505;-65
2023/12/16 09:04:41;;;;;;;22.63;8.17;;;6.50;99.90;;;;;;5053990;28;20037;-65
2023/12/16 09:07:07;;;;;;;29.33;9.57;;;6.50;99.90;;;;;;5060137;28;20044;-65
2023/12/16 09:09:32;;;;;;;27.33;8.73;;;6.50;99.90;;;;;;5061756;28;20068;-64
2023/12/16 09:11:58;;;;;;;28.27;8.67;;;6.50;99.90;;;;;;5050144;28;20638;-64
2023/12/16 09:14:24;;;;;;;25.88;8.73;;;6.50;99.90;;;;;;5067939;28;20513;-64
2023/12/16 09:16:50;;;;;;;28.27;10.10;;;6.50;99.90;;;;;;5058937;28;20166;-65
2023/12/16 09:19:15;;;;;;;24.67;8.93;;;6.60;99.90;;;;;;5059086;28;20067;-64
2023/12/16 09:21:42;;;;;;;27.85;9.20;;;6.60;99.90;;;;;;5057814;28;20108;-67
2023/12/16 09:24:07;;;;;;;;;;;6.60;99.90;;;;;;5060388;28;20087;-67
2023/12/16 09:26:33;;;;;;;32.55;9.82;;;6.60;99.90;;;;;;5060484;28;19928;-68
2023/12/16 09:29:00;;;;;;;31.27;9.02;;;6.70;99.90;;;;;;5061982;28;20083;-69
2023/12/16 09:31:26;;;;;;;21.90;7.72;;;6.70;99.90;;;;;;5066878;28;20047;-67
2023/12/16 09:33:52;;;;;;;36.15;11.98;;;6.70;99.90;;;;;;5066786;28;20040;-66
2023/12/16 09:36:17;;;;;;;25.77;10.02;;;6.70;99.90;;;;;;5043963;28;20048;-65
2023/12/16 09:38:43;;;;;;;25.23;9.52;;;6.70;99.90;;;;;;5066422;28;20127;-64
2023/12/16 09:41:24;;;;;;;26.33;9.07;;;6.80;99.90;;;;;;5072487;28;20032;-66
2023/12/16 09:43:54;;;;;;;31.15;9.75;;;6.80;99.90;;;;;;5071395;28;20294;-66
2023/12/16 09:46:30;;;;;;;32.70;8.85;;;6.80;99.90;;;;;;5070256;28;20458;-66
2023/12/16 09:48:56;;;;;;;27.10;8.52;;;6.90;99.90;;;;;;5068561;28;20039;-66
2023/12/16 09:51:23;;;;;;;21.70;8.25;;;6.80;99.90;;;;;;5069588;28;20039;-66
2023/12/16 09:53:50;;;;;;;28.08;8.25;;;6.90;99.90;;;;;;5072865;28;20086;-67
2023/12/16 09:56:17;;;;;;;26.52;9.40;;;6.90;99.90;;;;;;5062558;28;20124;-67
2023/12/16 09:58:44;;;;;;;33.88;10.18;;;6.90;99.90;;;;;;5068747;28;20120;-69
2023/12/16 10:01:11;;;;;;;32.42;9.65;;;6.90;99.90;;;;;;5071806;28;20041;-69
2023/12/16 10:03:37;;;;;;;26.00;8.68;;;6.90;99.90;;;;;;5057447;28;20060;-69
2023/12/16 10:06:07;;;;;;;;;;;6.90;99.90;;;;;;5062411;28;20078;-70
2023/12/16 10:08:34;;;;;;;32.00;9.00;;;6.90;99.90;;;;;;5063844;28;20003;-69
2023/12/16 10:11:00;;;;;;;33.75;9.80;;;6.90;99.90;;;;;;5053620;28;20151;-70
2023/12/16 10:13:30;;;;;;;31.63;9.55;;;7.00;99.90;;;;;;5058721;28;20048;-69
2023/12/16 10:15:57;;;;;;;37.38;10.43;;;7.00;99.90;;;;;;5061530;28;20140;-68
2023/12/16 10:18:23;;;;;;;31.42;11.23;;;7.00;99.90;;;;;;5060058;28;20037;-69
2023/12/16 10:20:48;;;;;;;32.28;10.73;;;7.10;99.90;;;;;;5067477;28;20089;-68
2023/12/16 10:23:14;;;;;;;36.80;11.05;;;7.10;99.90;;;;;;5060764;28;20033;-66
2023/12/16 10:25:40;;;;;;;34.33;10.00;;;7.10;99.90;;;;;;5053953;28;20465;-69
2023/12/16 10:28:06;;;;;;;29.65;9.20;;;7.20;99.90;;;;;;5055881;28;20029;-67
2023/12/16 10:30:32;;;;;;;32.50;9.88;;;7.20;99.90;;;;;;5067622;28;20024;-69
2023/12/16 10:33:03;;;;;;;32.50;8.65;;;7.20;99.90;;;;;;5047251;28;20041;-69
2023/12/16 10:35:30;;;;;;;37.17;10.25;;;7.20;99.90;;;;;;5061193;28;20063;-68
2023/12/16 10:37:56;;;;;;;37.03;11.35;;;7.20;99.90;;;;;;5061946;28;20063;-68
2023/12/16 10:40:23;;;;;;;28.53;11.40;;;7.20;99.90;;;;;;5057745;28;20066;-68
2023/12/16 10:42:49;;;;;;;34.75;12.07;;;7.20;99.90;;;;;;5056274;28;20352;-69
2023/12/16 10:45:15;;;;;;;36.10;12.27;;;7.30;99.90;;;;;;5064803;28;20044;-75
2023/12/16 10:47:41;;;;;;;34.22;12.93;;;7.30;99.90;;;;;;5060526;28;20036;-70
2023/12/16 10:50:07;;;;;;;39.33;13.23;;;7.30;99.90;;;;;;5066156;28;20384;-66
2023/12/16 10:52:43;;;;;;;39.63;12.95;;;7.30;99.90;;;;;;5067929;28;20447;-67
2023/12/16 10:55:14;;;;;;;30.70;15.27;;;7.30;99.90;;;;;;5050718;28;20123;-67
2023/12/16 10:57:53;;;;;;;46.55;14.90;;;7.30;99.90;;;;;;5057278;28;20045;-60
2023/12/16 11:00:26;;;;;;;35.25;14.93;;;7.40;99.90;;;;;;5073482;28;20426;-63
2023/12/16 11:03:20;;;;;;;40.10;14.88;;;7.40;99.90;;;;;;5069835;28;20087;-63
2023/12/16 11:05:51;;;;;;;42.97;14.80;;;7.40;99.90;;;;;;5045517;28;20499;-63
2023/12/16 11:08:17;;;;;;;45.78;14.85;;;7.40;99.90;;;;;;5048099;28;20090;-62
2023/12/16 11:10:43;;;;;;;37.45;15.10;;;7.50;99.90;;;;;;5069747;28;20068;-63
2023/12/16 11:13:10;;;;;;;49.90;17.95;;;7.50;99.90;;;;;;5068584;28;20194;-64
2023/12/16 11:15:37;;;;;;;47.70;16.73;;;7.50;99.90;;;;;;5065104;28;20048;-64
2023/12/16 11:18:17;;;;;;;;;;;7.50;99.90;;;;;;5065277;28;20083;-64
2023/12/16 11:20:45;;;;;;;50.20;17.08;;;7.50;99.90;;;;;;5050025;28;19920;-64
2023/12/16 11:23:11;;;;;;;48.63;18.60;;;7.50;99.90;;;;;;5067722;28;20042;-63
2023/12/16 11:25:37;;;;;;;47.10;17.52;;;7.50;99.90;;;;;;5069757;28;20040;-63
2023/12/16 11:28:04;;;;;;;55.42;17.15;;;7.50;99.90;;;;;;5051809;28;20036;-63
2023/12/16 11:30:32;;;;;;;61.38;19.25;;;7.50;99.90;;;;;;5069356;28;20086;-64
2023/12/16 11:32:59;;;;;;;50.70;19.85;;;7.50;99.90;;;;;;5068846;28;20078;-64
2023/12/16 11:35:37;;;;;;;53.17;20.17;;;7.50;99.90;;;;;;5066036;28;20033;-64
2023/12/16 11:38:04;;;;;;;60.92;21.00;;;7.50;99.90;;;;;;5059119;28;20040;-64
2023/12/16 11:40:51;;;;;;;50.15;22.05;;;7.50;99.90;;;;;;5068039;28;20062;-64
2023/12/16 11:43:17;;;;;;;57.13;21.38;;;7.60;99.90;;;;;;5062459;28;20047;-66
2023/12/16 11:45:44;;;;;;;56.17;23.25;;;7.60;99.90;;;;;;5049443;28;20044;-64
2023/12/16 11:48:15;;;;;;;51.42;22.58;;;7.60;99.90;;;;;;5068426;28;20052;-63
2023/12/16 11:50:46;;;;;;;57.85;25.23;;;7.60;99.90;;;;;;5069589;28;20036;-64
2023/12/16 11:53:13;;;;;;;54.20;26.52;;;7.60;99.90;;;;;;5055474;28;20047;-63
2023/12/16 11:55:40;;;;;;;56.15;24.65;;;7.70;99.90;;;;;;5074870;28;20055;-63
2023/12/16 11:58:06;;;;;;;59.88;26.10;;;7.70;99.90;;;;;;5056169;28;20097;-63
2023/12/16 12:00:32;;;;;;;60.90;25.38;;;7.70;99.90;;;;;;5069535;28;20037;-64
2023/12/16 12:03:01;;;;;;;55.95;26.85;;;7.70;99.90;;;;;;5050836;28;20040;-63
2023/12/16 12:05:28;;;;;;;50.28;25.88;;;7.70;99.90;;;;;;5068838;28;20121;-63
2023/12/16 12:07:55;;;;;;;59.78;26.38;;;7.70;99.90;;;;;;5051456;28;20048;-63
2023/12/16 12:10:21;;;;;;;54.85;26.95;;;7.80;99.90;;;;;;5034353;28;20044;-63
2023/12/16 12:12:47;;;;;;;;;;;7.80;99.90;;;;;;5061625;28;20040;-64
2023/12/16 12:15:13;;;;;;;58.28;25.85;;;7.80;99.90;;;;;;5068855;28;19923;-63
2023/12/16 12:17:39;;;;;;;56.80;25.48;;;7.80;99.90;;;;;;5050791;28;20055;-63
2023/12/16 12:20:06;;;;;;;44.37;23.43;;;7.90;99.90;;;;;;5069121;28;20067;-63
2023/12/16 12:22:33;;;;;;;53.88;23.40;;;7.90;99.90;;;;;;5067872;28;20303;-63
2023/12/16 12:24:58;;;;;;;47.72;24.15;;;7.90;99.90;;;;;;5068845;28;20044;-63
2023/12/16 12:27:24;;;;;;;50.10;22.13;;;7.90;99.90;;;;;;5068788;28;20039;-63
2023/12/16 12:29:58;;;;;;;45.70;21.98;;;7.90;99.90;;;;;;5069063;28;20279;-64
2023/12/16 12:32:28;;;;;;;47.13;22.15;;;7.90;99.90;;;;;;5067197;28;20522;-63
2023/12/16 12:35:08;;;;;;;46.97;21.48;;;7.90;99.90;;;;;;5069039;28;20403;-63
2023/12/16 12:37:41;;;;;;;44.95;20.50;;;8.00;99.90;;;;;;5065963;28;21258;-63
2023/12/16 12:40:13;;;;;;;46.58;22.55;;;8.00;99.90;;;;;;5067858;28;20040;-63
2023/12/16 12:42:48;;;;;;;41.22;20.85;;;7.90;99.90;;;;;;5065882;28;20040;-63
2023/12/16 12:45:36;;;;;;;43.83;21.67;;;8.00;99.90;;;;;;5067612;28;20089;-63